sensor_id;sensor_type;location;lat;lon;timestamp;P1;durP1;ratioP1;P2;durP2;ratioP2
18580;SDS011;9420;50.876;7.012;2022-08-05T00:00:22;0.40;;;0.40;;
18580;SDS011;9420;50.876;7.012;2022-08-05T00:02:49;0.30;;;0.30;;
18580;SDS011;9420;50.876;7.012;2022-08-05T00:05:16;0.30;;;0.30;;
18580;SDS011;9420;50.876;7.012;2022-08-05T00:07:46;0.87;;;0.67;;
18580;SDS011;9420;50.876;7.012;2022-08-05T00:10:13;0.30;;;0.30;;
18580;SDS011;9420;50.876;7.012;2022-08-05T00:12:40;0.30;;;0.30;;
18580;SDS011;9420;50.876;7.012;2022-08-05T00:15:07;0.43;;;0.30;;
18580;SDS011;9420;50.876;7.012;2022-08-05T00:17:35;1.30;;;0.77;;
18580;SDS011;9420;50.876;7.012;2022-08-05T00:20:02;0.27;;;0.27;;
18580;SDS011;9420;50.876;7.012;2022-08-05T00:22:30;0.40;;;0.40;;
18580;SDS011;9420;50.876;7.012;2022-08-05T00:24:59;0.10;;;0.10;;
18580;SDS011;9420;50.876;7.012;2022-08-05T00:27:26;0.60;;;0.60;;
18580;SDS011;9420;50.876;7.012;2022-08-05T00:29:54;0.63;;;0.63;;
18580;SDS011;9420;50.876;7.012;2022-08-05T00:32:21;0.30;;;0.20;;
18580;SDS011;9420;50.876;7.012;2022-08-05T00:34:48;2.80;;;1.90;;
18580;SDS011;9420;50.876;7.012;2022-08-05T00:37:16;0.10;;;0.10;;
18580;SDS011;9420;50.876;7.012;2022-08-05T00:39:43;0.30;;;0.30;;
18580;SDS011;9420;50.876;7.012;2022-08-05T00:42:13;0.10;;;0.10;;
18580;SDS011;9420;50.876;7.012;2022-08-05T00:44:40;0.30;;;0.30;;
18580;SDS011;9420;50.876;7.012;2022-08-05T00:47:07;0.50;;;0.50;;
18580;SDS011;9420;50.876;7.012;2022-08-05T00:49:34;0.73;;;0.57;;
18580;SDS011;9420;50.876;7.012;2022-08-05T00:52:02;0.50;;;0.50;;
18580;SDS011;9420;50.876;7.012;2022-08-05T00:54:29;0.30;;;0.30;;
18580;SDS011;9420;50.876;7.012;2022-08-05T00:56:56;0.50;;;0.50;;
18580;SDS011;9420;50.876;7.012;2022-08-05T00:59:25;0.63;;;0.63;;
18580;SDS011;9420;50.876;7.012;2022-08-05T01:01:52;0.47;;;0.47;;
18580;SDS011;9420;50.876;7.012;2022-08-05T01:04:19;0.23;;;0.23;;
18580;SDS011;9420;50.876;7.012;2022-08-05T01:06:46;1.50;;;0.70;;
18580;SDS011;9420;50.876;7.012;2022-08-05T01:09:13;0.17;;;0.17;;
18580;SDS011;9420;50.876;7.012;2022-08-05T01:11:40;0.63;;;0.47;;
18580;SDS011;9420;50.876;7.012;2022-08-05T01:14:13;0.30;;;0.30;;
18580;SDS011;9420;50.876;7.012;2022-08-05T01:16:53;0.53;;;0.53;;
18580;SDS011;9420;50.876;7.012;2022-08-05T01:19:32;0.20;;;0.20;;
18580;SDS011;9420;50.876;7.012;2022-08-05T01:22:14;0.10;;;0.10;;
18580;SDS011;9420;50.876;7.012;2022-08-05T01:24:58;0.47;;;0.43;;
18580;SDS011;9420;50.876;7.012;2022-08-05T01:27:58;0.10;;;0.10;;
18580;SDS011;9420;50.876;7.012;2022-08-05T01:30:52;0.73;;;0.73;;
18580;SDS011;9420;50.876;7.012;2022-08-05T01:33:27;0.30;;;0.30;;
18580;SDS011;9420;50.876;7.012;2022-08-05T01:36:06;0.20;;;0.20;;
18580;SDS011;9420;50.876;7.012;2022-08-05T01:38:40;1.53;;;1.27;;
18580;SDS011;9420;50.876;7.012;2022-08-05T01:41:12;0.60;;;0.60;;
18580;SDS011;9420;50.876;7.012;2022-08-05T01:43:43;1.00;;;0.77;;
18580;SDS011;9420;50.876;7.012;2022-08-05T01:46:15;0.50;;;0.50;;
18580;SDS011;9420;50.876;7.012;2022-08-05T01:48:45;0.40;;;0.33;;
18580;SDS011;9420;50.876;7.012;2022-08-05T01:51:13;0.37;;;0.37;;
18580;SDS011;9420;50.876;7.012;2022-08-05T01:53:43;2.00;;;1.20;;
18580;SDS011;9420;50.876;7.012;2022-08-05T01:56:14;0.47;;;0.47;;
18580;SDS011;9420;50.876;7.012;2022-08-05T01:58:45;0.20;;;0.20;;
18580;SDS011;9420;50.876;7.012;2022-08-05T02:01:15;0.50;;;0.50;;
18580;SDS011;9420;50.876;7.012;2022-08-05T02:03:46;3.47;;;1.33;;
18580;SDS011;9420;50.876;7.012;2022-08-05T02:06:17;0.37;;;0.37;;
18580;SDS011;9420;50.876;7.012;2022-08-05T02:08:45;1.40;;;1.00;;
18580;SDS011;9420;50.876;7.012;2022-08-05T02:11:14;0.20;;;0.20;;
18580;SDS011;9420;50.876;7.012;2022-08-05T02:13:44;0.63;;;0.63;;
18580;SDS011;9420;50.876;7.012;2022-08-05T02:16:21;0.20;;;0.20;;
18580;SDS011;9420;50.876;7.012;2022-08-05T02:18:54;1.03;;;1.03;;
18580;SDS011;9420;50.876;7.012;2022-08-05T02:21:27;0.23;;;0.23;;
18580;SDS011;9420;50.876;7.012;2022-08-05T02:24:01;1.13;;;0.93;;
18580;SDS011;9420;50.876;7.012;2022-08-05T02:26:37;0.20;;;0.20;;
18580;SDS011;9420;50.876;7.012;2022-08-05T02:29:12;0.63;;;0.57;;
18580;SDS011;9420;50.876;7.012;2022-08-05T02:31:46;0.50;;;0.50;;
18580;SDS011;9420;50.876;7.012;2022-08-05T02:34:19;0.20;;;0.20;;
18580;SDS011;9420;50.876;7.012;2022-08-05T02:36:49;1.50;;;1.37;;
18580;SDS011;9420;50.876;7.012;2022-08-05T02:39:21;0.43;;;0.43;;
18580;SDS011;9420;50.876;7.012;2022-08-05T02:41:50;1.27;;;0.93;;
18580;SDS011;9420;50.876;7.012;2022-08-05T02:44:22;1.70;;;1.60;;
18580;SDS011;9420;50.876;7.012;2022-08-05T02:46:53;0.73;;;0.63;;
18580;SDS011;9420;50.876;7.012;2022-08-05T02:49:22;0.70;;;0.70;;
18580;SDS011;9420;50.876;7.012;2022-08-05T02:51:52;3.77;;;0.73;;
18580;SDS011;9420;50.876;7.012;2022-08-05T02:54:22;1.27;;;1.17;;
18580;SDS011;9420;50.876;7.012;2022-08-05T02:56:51;0.93;;;0.93;;
18580;SDS011;9420;50.876;7.012;2022-08-05T02:59:21;0.63;;;0.63;;
18580;SDS011;9420;50.876;7.012;2022-08-05T03:01:51;0.30;;;0.30;;
18580;SDS011;9420;50.876;7.012;2022-08-05T03:04:24;1.57;;;1.23;;
18580;SDS011;9420;50.876;7.012;2022-08-05T03:06:53;0.40;;;0.40;;
18580;SDS011;9420;50.876;7.012;2022-08-05T03:09:23;1.03;;;0.70;;
18580;SDS011;9420;50.876;7.012;2022-08-05T03:11:51;0.57;;;0.57;;
18580;SDS011;9420;50.876;7.012;2022-08-05T03:14:18;3.20;;;0.87;;
18580;SDS011;9420;50.876;7.012;2022-08-05T03:16:46;0.40;;;0.40;;
18580;SDS011;9420;50.876;7.012;2022-08-05T03:19:13;0.73;;;0.73;;
18580;SDS011;9420;50.876;7.012;2022-08-05T03:21:40;1.17;;;1.07;;
18580;SDS011;9420;50.876;7.012;2022-08-05T03:24:07;0.70;;;0.70;;
18580;SDS011;9420;50.876;7.012;2022-08-05T03:26:35;10.20;;;1.80;;
18580;SDS011;9420;50.876;7.012;2022-08-05T03:29:03;3.60;;;2.47;;
18580;SDS011;9420;50.876;7.012;2022-08-05T03:31:30;1.00;;;1.00;;
18580;SDS011;9420;50.876;7.012;2022-08-05T03:34:00;1.33;;;1.23;;
18580;SDS011;9420;50.876;7.012;2022-08-05T03:36:29;2.57;;;1.70;;
18580;SDS011;9420;50.876;7.012;2022-08-05T03:38:57;2.27;;;0.60;;
18580;SDS011;9420;50.876;7.012;2022-08-05T03:41:24;1.40;;;1.30;;
18580;SDS011;9420;50.876;7.012;2022-08-05T03:43:51;1.20;;;1.10;;
18580;SDS011;9420;50.876;7.012;2022-08-05T03:46:18;1.17;;;1.07;;
18580;SDS011;9420;50.876;7.012;2022-08-05T03:48:45;1.47;;;1.43;;
18580;SDS011;9420;50.876;7.012;2022-08-05T03:51:14;1.00;;;1.00;;
18580;SDS011;9420;50.876;7.012;2022-08-05T03:53:48;4.63;;;1.40;;
18580;SDS011;9420;50.876;7.012;2022-08-05T03:56:23;4.00;;;1.73;;
18580;SDS011;9420;50.876;7.012;2022-08-05T03:58:59;2.20;;;1.40;;
18580;SDS011;9420;50.876;7.012;2022-08-05T04:01:31;1.20;;;1.20;;
18580;SDS011;9420;50.876;7.012;2022-08-05T04:04:07;0.77;;;0.77;;
18580;SDS011;9420;50.876;7.012;2022-08-05T04:06:39;1.43;;;1.13;;
18580;SDS011;9420;50.876;7.012;2022-08-05T04:09:07;1.30;;;1.10;;
18580;SDS011;9420;50.876;7.012;2022-08-05T04:11:35;2.67;;;2.37;;
18580;SDS011;9420;50.876;7.012;2022-08-05T04:14:04;1.20;;;0.93;;
18580;SDS011;9420;50.876;7.012;2022-08-05T04:16:33;1.53;;;1.20;;
18580;SDS011;9420;50.876;7.012;2022-08-05T04:19:01;0.87;;;0.87;;
18580;SDS011;9420;50.876;7.012;2022-08-05T04:21:28;0.50;;;0.50;;
18580;SDS011;9420;50.876;7.012;2022-08-05T04:23:57;1.13;;;1.10;;
18580;SDS011;9420;50.876;7.012;2022-08-05T04:26:24;0.70;;;0.63;;
18580;SDS011;9420;50.876;7.012;2022-08-05T04:28:51;10.53;;;1.47;;
18580;SDS011;9420;50.876;7.012;2022-08-05T04:31:18;4.47;;;1.23;;
18580;SDS011;9420;50.876;7.012;2022-08-05T04:33:45;2.77;;;2.57;;
18580;SDS011;9420;50.876;7.012;2022-08-05T04:36:13;2.73;;;2.00;;
18580;SDS011;9420;50.876;7.012;2022-08-05T04:38:40;2.00;;;1.30;;
18580;SDS011;9420;50.876;7.012;2022-08-05T04:41:10;4.97;;;3.93;;
18580;SDS011;9420;50.876;7.012;2022-08-05T04:43:37;2.90;;;1.90;;
18580;SDS011;9420;50.876;7.012;2022-08-05T04:46:05;0.60;;;0.60;;
18580;SDS011;9420;50.876;7.012;2022-08-05T04:48:32;1.73;;;1.63;;
18580;SDS011;9420;50.876;7.012;2022-08-05T04:50:59;3.57;;;2.37;;
18580;SDS011;9420;50.876;7.012;2022-08-05T04:53:26;3.80;;;3.00;;
18580;SDS011;9420;50.876;7.012;2022-08-05T04:55:53;5.10;;;2.50;;
18580;SDS011;9420;50.876;7.012;2022-08-05T04:58:22;0.97;;;0.97;;
18580;SDS011;9420;50.876;7.012;2022-08-05T05:00:49;1.47;;;1.37;;
18580;SDS011;9420;50.876;7.012;2022-08-05T05:03:16;3.30;;;1.57;;
18580;SDS011;9420;50.876;7.012;2022-08-05T05:05:43;2.67;;;1.80;;
18580;SDS011;9420;50.876;7.012;2022-08-05T05:08:10;1.30;;;0.63;;
18580;SDS011;9420;50.876;7.012;2022-08-05T05:10:39;1.63;;;1.53;;
18580;SDS011;9420;50.876;7.012;2022-08-05T05:13:08;2.83;;;2.30;;
18580;SDS011;9420;50.876;7.012;2022-08-05T05:15:39;0.73;;;0.73;;
18580;SDS011;9420;50.876;7.012;2022-08-05T05:18:08;4.10;;;1.73;;
18580;SDS011;9420;50.876;7.012;2022-08-05T05:20:41;3.37;;;2.00;;
18580;SDS011;9420;50.876;7.012;2022-08-05T05:23:09;2.43;;;2.23;;
18580;SDS011;9420;50.876;7.012;2022-08-05T05:25:39;3.87;;;3.13;;
18580;SDS011;9420;50.876;7.012;2022-08-05T05:28:06;1.67;;;1.57;;
18580;SDS011;9420;50.876;7.012;2022-08-05T05:30:34;2.10;;;1.23;;
18580;SDS011;9420;50.876;7.012;2022-08-05T05:33:03;2.00;;;1.90;;
18580;SDS011;9420;50.876;7.012;2022-08-05T05:35:33;1.83;;;1.70;;
18580;SDS011;9420;50.876;7.012;2022-08-05T05:38:02;3.70;;;1.77;;
18580;SDS011;9420;50.876;7.012;2022-08-05T05:40:30;6.23;;;2.80;;
18580;SDS011;9420;50.876;7.012;2022-08-05T05:42:58;4.73;;;2.50;;
18580;SDS011;9420;50.876;7.012;2022-08-05T05:45:26;9.53;;;2.57;;
18580;SDS011;9420;50.876;7.012;2022-08-05T05:47:53;2.67;;;2.57;;
18580;SDS011;9420;50.876;7.012;2022-08-05T05:50:21;2.13;;;2.03;;
18580;SDS011;9420;50.876;7.012;2022-08-05T05:52:48;3.17;;;2.97;;
18580;SDS011;9420;50.876;7.012;2022-08-05T05:55:16;2.53;;;2.33;;
18580;SDS011;9420;50.876;7.012;2022-08-05T05:57:45;1.13;;;1.07;;
18580;SDS011;9420;50.876;7.012;2022-08-05T06:00:14;1.87;;;1.57;;
18580;SDS011;9420;50.876;7.012;2022-08-05T06:02:44;2.83;;;2.17;;
18580;SDS011;9420;50.876;7.012;2022-08-05T06:05:13;6.47;;;2.50;;
18580;SDS011;9420;50.876;7.012;2022-08-05T06:07:43;3.60;;;1.80;;
18580;SDS011;9420;50.876;7.012;2022-08-05T06:10:11;4.13;;;2.67;;
18580;SDS011;9420;50.876;7.012;2022-08-05T06:12:39;3.53;;;3.27;;
18580;SDS011;9420;50.876;7.012;2022-08-05T06:15:07;3.77;;;2.13;;
18580;SDS011;9420;50.876;7.012;2022-08-05T06:17:36;5.13;;;3.30;;
18580;SDS011;9420;50.876;7.012;2022-08-05T06:20:03;2.27;;;2.10;;
18580;SDS011;9420;50.876;7.012;2022-08-05T06:22:33;2.23;;;2.13;;
18580;SDS011;9420;50.876;7.012;2022-08-05T06:25:02;2.33;;;2.13;;
18580;SDS011;9420;50.876;7.012;2022-08-05T06:27:32;4.77;;;2.20;;
18580;SDS011;9420;50.876;7.012;2022-08-05T06:29:59;1.87;;;1.77;;
18580;SDS011;9420;50.876;7.012;2022-08-05T06:32:27;2.33;;;2.23;;
18580;SDS011;9420;50.876;7.012;2022-08-05T06:34:54;4.23;;;2.10;;
18580;SDS011;9420;50.876;7.012;2022-08-05T06:37:23;5.37;;;3.57;;
18580;SDS011;9420;50.876;7.012;2022-08-05T06:39:51;3.37;;;3.17;;
18580;SDS011;9420;50.876;7.012;2022-08-05T06:42:19;6.13;;;2.73;;
18580;SDS011;9420;50.876;7.012;2022-08-05T06:44:46;3.63;;;3.37;;
18580;SDS011;9420;50.876;7.012;2022-08-05T06:47:14;3.83;;;3.53;;
18580;SDS011;9420;50.876;7.012;2022-08-05T06:49:41;2.60;;;2.40;;
18580;SDS011;9420;50.876;7.012;2022-08-05T06:52:09;11.63;;;2.77;;
18580;SDS011;9420;50.876;7.012;2022-08-05T06:54:36;6.00;;;2.67;;
18580;SDS011;9420;50.876;7.012;2022-08-05T06:57:03;4.00;;;3.70;;
18580;SDS011;9420;50.876;7.012;2022-08-05T06:59:32;5.10;;;3.27;;
18580;SDS011;9420;50.876;7.012;2022-08-05T07:01:59;4.73;;;4.33;;
18580;SDS011;9420;50.876;7.012;2022-08-05T07:04:26;5.30;;;4.40;;
18580;SDS011;9420;50.876;7.012;2022-08-05T07:06:53;3.43;;;2.50;;
18580;SDS011;9420;50.876;7.012;2022-08-05T07:09:20;3.43;;;3.13;;
18580;SDS011;9420;50.876;7.012;2022-08-05T07:11:47;6.33;;;5.77;;
18580;SDS011;9420;50.876;7.012;2022-08-05T07:14:14;4.77;;;4.30;;
18580;SDS011;9420;50.876;7.012;2022-08-05T07:17:00;6.13;;;4.33;;
18580;SDS011;9420;50.876;7.012;2022-08-05T07:19:27;10.63;;;5.33;;
18580;SDS011;9420;50.876;7.012;2022-08-05T07:21:54;3.90;;;3.37;;
18580;SDS011;9420;50.876;7.012;2022-08-05T07:24:22;7.57;;;5.03;;
18580;SDS011;9420;50.876;7.012;2022-08-05T07:26:50;3.73;;;2.70;;
18580;SDS011;9420;50.876;7.012;2022-08-05T07:29:18;4.57;;;3.17;;
18580;SDS011;9420;50.876;7.012;2022-08-05T07:31:45;4.80;;;3.73;;
18580;SDS011;9420;50.876;7.012;2022-08-05T07:34:14;9.53;;;4.67;;
18580;SDS011;9420;50.876;7.012;2022-08-05T07:36:41;8.40;;;4.90;;
18580;SDS011;9420;50.876;7.012;2022-08-05T07:39:08;8.87;;;3.40;;
18580;SDS011;9420;50.876;7.012;2022-08-05T07:41:36;5.00;;;4.27;;
18580;SDS011;9420;50.876;7.012;2022-08-05T07:44:04;9.27;;;5.60;;
18580;SDS011;9420;50.876;7.012;2022-08-05T07:46:33;6.20;;;5.73;;
18580;SDS011;9420;50.876;7.012;2022-08-05T07:49:01;3.07;;;2.87;;
18580;SDS011;9420;50.876;7.012;2022-08-05T07:51:31;7.87;;;6.13;;
18580;SDS011;9420;50.876;7.012;2022-08-05T07:54:01;6.83;;;5.10;;
18580;SDS011;9420;50.876;7.012;2022-08-05T07:56:28;4.13;;;3.70;;
18580;SDS011;9420;50.876;7.012;2022-08-05T07:58:55;10.43;;;6.70;;
18580;SDS011;9420;50.876;7.012;2022-08-05T08:01:22;4.30;;;4.00;;
18580;SDS011;9420;50.876;7.012;2022-08-05T08:03:51;5.10;;;2.53;;
18580;SDS011;9420;50.876;7.012;2022-08-05T08:06:18;4.57;;;4.27;;
18580;SDS011;9420;50.876;7.012;2022-08-05T08:08:47;9.57;;;6.20;;
18580;SDS011;9420;50.876;7.012;2022-08-05T08:11:14;7.47;;;6.83;;
18580;SDS011;9420;50.876;7.012;2022-08-05T08:13:41;9.03;;;6.27;;
18580;SDS011;9420;50.876;7.012;2022-08-05T08:16:08;6.70;;;4.47;;
18580;SDS011;9420;50.876;7.012;2022-08-05T08:18:37;10.23;;;4.83;;
18580;SDS011;9420;50.876;7.012;2022-08-05T08:21:04;8.30;;;7.50;;
18580;SDS011;9420;50.876;7.012;2022-08-05T08:23:31;12.27;;;4.47;;
18580;SDS011;9420;50.876;7.012;2022-08-05T08:26:00;7.53;;;6.83;;
18580;SDS011;9420;50.876;7.012;2022-08-05T08:28:28;15.60;;;4.90;;
18580;SDS011;9420;50.876;7.012;2022-08-05T08:30:58;4.20;;;3.23;;
18580;SDS011;9420;50.876;7.012;2022-08-05T08:33:25;8.33;;;5.33;;
18580;SDS011;9420;50.876;7.012;2022-08-05T08:35:52;12.00;;;4.23;;
18580;SDS011;9420;50.876;7.012;2022-08-05T08:38:19;5.27;;;3.17;;
18580;SDS011;9420;50.876;7.012;2022-08-05T08:40:46;3.90;;;3.60;;
18580;SDS011;9420;50.876;7.012;2022-08-05T08:43:15;5.37;;;4.33;;
18580;SDS011;9420;50.876;7.012;2022-08-05T08:45:45;5.20;;;3.73;;
18580;SDS011;9420;50.876;7.012;2022-08-05T08:48:15;2.93;;;2.67;;
18580;SDS011;9420;50.876;7.012;2022-08-05T08:50:45;5.23;;;3.03;;
18580;SDS011;9420;50.876;7.012;2022-08-05T08:53:14;10.97;;;3.97;;
18580;SDS011;9420;50.876;7.012;2022-08-05T08:55:43;3.13;;;2.93;;
18580;SDS011;9420;50.876;7.012;2022-08-05T08:58:11;3.30;;;3.10;;
18580;SDS011;9420;50.876;7.012;2022-08-05T09:00:43;4.87;;;3.57;;
18580;SDS011;9420;50.876;7.012;2022-08-05T09:03:12;3.97;;;3.03;;
18580;SDS011;9420;50.876;7.012;2022-08-05T09:05:40;4.80;;;4.40;;
18580;SDS011;9420;50.876;7.012;2022-08-05T09:08:07;3.67;;;2.97;;
18580;SDS011;9420;50.876;7.012;2022-08-05T09:10:35;6.67;;;4.57;;
18580;SDS011;9420;50.876;7.012;2022-08-05T09:13:05;3.77;;;2.47;;
18580;SDS011;9420;50.876;7.012;2022-08-05T09:15:34;6.47;;;2.90;;
18580;SDS011;9420;50.876;7.012;2022-08-05T09:18:05;4.20;;;2.63;;
18580;SDS011;9420;50.876;7.012;2022-08-05T09:20:33;5.70;;;5.23;;
18580;SDS011;9420;50.876;7.012;2022-08-05T09:23:04;3.67;;;3.27;;
18580;SDS011;9420;50.876;7.012;2022-08-05T09:25:36;8.37;;;4.50;;
18580;SDS011;9420;50.876;7.012;2022-08-05T09:28:09;6.50;;;4.53;;
18580;SDS011;9420;50.876;7.012;2022-08-05T09:30:43;6.90;;;5.27;;
18580;SDS011;9420;50.876;7.012;2022-08-05T09:33:19;5.23;;;4.43;;
18580;SDS011;9420;50.876;7.012;2022-08-05T09:35:57;3.67;;;3.33;;
18580;SDS011;9420;50.876;7.012;2022-08-05T09:38:26;5.23;;;2.53;;
18580;SDS011;9420;50.876;7.012;2022-08-05T09:41:00;3.57;;;3.27;;
18580;SDS011;9420;50.876;7.012;2022-08-05T09:43:30;2.90;;;2.23;;
18580;SDS011;9420;50.876;7.012;2022-08-05T09:46:03;3.30;;;2.13;;
18580;SDS011;9420;50.876;7.012;2022-08-05T09:48:35;2.63;;;2.00;;
18580;SDS011;9420;50.876;7.012;2022-08-05T09:51:04;1.90;;;1.47;;
18580;SDS011;9420;50.876;7.012;2022-08-05T09:53:46;3.60;;;2.57;;
18580;SDS011;9420;50.876;7.012;2022-08-05T09:56:22;2.20;;;2.00;;
18580;SDS011;9420;50.876;7.012;2022-08-05T09:58:55;2.83;;;1.67;;
18580;SDS011;9420;50.876;7.012;2022-08-05T10:01:25;1.07;;;1.07;;
18580;SDS011;9420;50.876;7.012;2022-08-05T10:03:55;1.70;;;1.33;;
18580;SDS011;9420;50.876;7.012;2022-08-05T10:06:25;0.80;;;0.73;;
18580;SDS011;9420;50.876;7.012;2022-08-05T10:08:52;0.77;;;0.77;;
18580;SDS011;9420;50.876;7.012;2022-08-05T10:11:20;1.17;;;1.07;;
18580;SDS011;9420;50.876;7.012;2022-08-05T10:13:48;4.03;;;1.80;;
18580;SDS011;9420;50.876;7.012;2022-08-05T10:16:30;1.30;;;1.20;;
18580;SDS011;9420;50.876;7.012;2022-08-05T10:18:59;0.77;;;0.77;;
18580;SDS011;9420;50.876;7.012;2022-08-05T10:21:27;1.53;;;1.43;;
18580;SDS011;9420;50.876;7.012;2022-08-05T10:23:54;1.77;;;1.67;;
18580;SDS011;9420;50.876;7.012;2022-08-05T10:26:21;1.13;;;0.80;;
18580;SDS011;9420;50.876;7.012;2022-08-05T10:28:49;2.07;;;1.97;;
18580;SDS011;9420;50.876;7.012;2022-08-05T10:31:16;0.80;;;0.80;;
18580;SDS011;9420;50.876;7.012;2022-08-05T10:33:45;1.77;;;0.97;;
18580;SDS011;9420;50.876;7.012;2022-08-05T10:36:12;0.73;;;0.73;;
18580;SDS011;9420;50.876;7.012;2022-08-05T10:38:41;0.40;;;0.40;;
18580;SDS011;9420;50.876;7.012;2022-08-05T10:41:15;0.87;;;0.87;;
18580;SDS011;9420;50.876;7.012;2022-08-05T10:43:56;0.43;;;0.37;;
18580;SDS011;9420;50.876;7.012;2022-08-05T10:46:42;10.03;;;3.47;;
18580;SDS011;9420;50.876;7.012;2022-08-05T10:49:12;0.47;;;0.47;;
18580;SDS011;9420;50.876;7.012;2022-08-05T10:51:43;1.13;;;1.03;;
18580;SDS011;9420;50.876;7.012;2022-08-05T10:54:13;0.60;;;0.60;;
18580;SDS011;9420;50.876;7.012;2022-08-05T10:56:45;0.87;;;0.87;;
18580;SDS011;9420;50.876;7.012;2022-08-05T10:59:17;4.23;;;1.40;;
18580;SDS011;9420;50.876;7.012;2022-08-05T11:01:54;0.40;;;0.40;;
18580;SDS011;9420;50.876;7.012;2022-08-05T11:04:37;0.67;;;0.67;;
18580;SDS011;9420;50.876;7.012;2022-08-05T11:07:10;1.37;;;0.70;;
18580;SDS011;9420;50.876;7.012;2022-08-05T11:09:42;1.17;;;0.30;;
18580;SDS011;9420;50.876;7.012;2022-08-05T11:15:15;0.27;;;0.27;;
18580;SDS011;9420;50.876;7.012;2022-08-05T11:17:46;0.30;;;0.30;;
18580;SDS011;9420;50.876;7.012;2022-08-05T11:20:34;0.60;;;0.60;;
18580;SDS011;9420;50.876;7.012;2022-08-05T11:23:24;0.30;;;0.30;;
18580;SDS011;9420;50.876;7.012;2022-08-05T11:26:02;0.77;;;0.50;;
18580;SDS011;9420;50.876;7.012;2022-08-05T11:28:38;1.00;;;0.50;;
18580;SDS011;9420;50.876;7.012;2022-08-05T11:31:19;0.10;;;0.10;;
18580;SDS011;9420;50.876;7.012;2022-08-05T11:33:58;0.33;;;0.33;;
18580;SDS011;9420;50.876;7.012;2022-08-05T11:36:39;0.30;;;0.30;;
18580;SDS011;9420;50.876;7.012;2022-08-05T11:39:14;0.20;;;0.20;;
18580;SDS011;9420;50.876;7.012;2022-08-05T11:42:02;0.45;;;0.45;;
18580;SDS011;9420;50.876;7.012;2022-08-05T11:44:35;0.55;;;0.55;;
18580;SDS011;9420;50.876;7.012;2022-08-05T11:47:04;0.15;;;0.15;;
18580;SDS011;9420;50.876;7.012;2022-08-05T11:49:32;0.28;;;0.28;;
18580;SDS011;9420;50.876;7.012;2022-08-05T11:52:01;0.63;;;0.63;;
18580;SDS011;9420;50.876;7.012;2022-08-05T11:54:29;0.32;;;0.20;;
18580;SDS011;9420;50.876;7.012;2022-08-05T11:56:58;0.65;;;0.65;;
18580;SDS011;9420;50.876;7.012;2022-08-05T11:59:28;0.43;;;0.43;;
18580;SDS011;9420;50.876;7.012;2022-08-05T12:01:58;0.00;;;0.00;;
18580;SDS011;9420;50.876;7.012;2022-08-05T12:04:28;1.88;;;1.42;;
18580;SDS011;9420;50.876;7.012;2022-08-05T12:07:06;0.28;;;0.28;;
18580;SDS011;9420;50.876;7.012;2022-08-05T12:09:36;0.10;;;0.10;;
18580;SDS011;9420;50.876;7.012;2022-08-05T12:12:06;0.30;;;0.30;;
18580;SDS011;9420;50.876;7.012;2022-08-05T12:14:34;0.20;;;0.20;;
18580;SDS011;9420;50.876;7.012;2022-08-05T12:17:07;0.08;;;0.08;;
18580;SDS011;9420;50.876;7.012;2022-08-05T12:19:42;0.40;;;0.40;;
18580;SDS011;9420;50.876;7.012;2022-08-05T12:22:13;0.10;;;0.10;;
18580;SDS011;9420;50.876;7.012;2022-08-05T12:24:44;0.22;;;0.22;;
18580;SDS011;9420;50.876;7.012;2022-08-05T12:27:19;0.28;;;0.28;;
18580;SDS011;9420;50.876;7.012;2022-08-05T12:29:56;0.17;;;0.17;;
18580;SDS011;9420;50.876;7.012;2022-08-05T12:32:26;1.85;;;0.40;;
18580;SDS011;9420;50.876;7.012;2022-08-05T12:34:54;0.13;;;0.13;;
18580;SDS011;9420;50.876;7.012;2022-08-05T12:37:23;0.20;;;0.20;;
18580;SDS011;9420;50.876;7.012;2022-08-05T12:39:51;0.40;;;0.40;;
18580;SDS011;9420;50.876;7.012;2022-08-05T12:42:18;0.10;;;0.10;;
18580;SDS011;9420;50.876;7.012;2022-08-05T12:44:47;0.03;;;0.03;;
18580;SDS011;9420;50.876;7.012;2022-08-05T12:47:24;1.27;;;1.17;;
18580;SDS011;9420;50.876;7.012;2022-08-05T12:49:54;0.75;;;0.75;;
18580;SDS011;9420;50.876;7.012;2022-08-05T12:52:22;0.10;;;0.10;;
18580;SDS011;9420;50.876;7.012;2022-08-05T12:54:49;0.65;;;0.65;;
18580;SDS011;9420;50.876;7.012;2022-08-05T12:57:17;0.10;;;0.10;;
18580;SDS011;9420;50.876;7.012;2022-08-05T12:59:46;0.08;;;0.08;;
18580;SDS011;9420;50.876;7.012;2022-08-05T13:02:15;0.28;;;0.28;;
18580;SDS011;9420;50.876;7.012;2022-08-05T13:04:46;1.40;;;1.30;;
18580;SDS011;9420;50.876;7.012;2022-08-05T13:07:15;0.32;;;0.32;;
18580;SDS011;9420;50.876;7.012;2022-08-05T13:09:49;0.30;;;0.20;;
18580;SDS011;9420;50.876;7.012;2022-08-05T13:12:18;0.32;;;0.32;;
18580;SDS011;9420;50.876;7.012;2022-08-05T13:14:50;0.30;;;0.30;;
18580;SDS011;9420;50.876;7.012;2022-08-05T13:17:21;0.20;;;0.20;;
18580;SDS011;9420;50.876;7.012;2022-08-05T13:19:57;0.30;;;0.30;;
18580;SDS011;9420;50.876;7.012;2022-08-05T13:22:30;0.10;;;0.10;;
18580;SDS011;9420;50.876;7.012;2022-08-05T13:25:00;0.10;;;0.10;;
18580;SDS011;9420;50.876;7.012;2022-08-05T13:27:31;0.88;;;0.88;;
18580;SDS011;9420;50.876;7.012;2022-08-05T13:30:01;0.13;;;0.13;;
18580;SDS011;9420;50.876;7.012;2022-08-05T13:32:31;0.35;;;0.35;;
18580;SDS011;9420;50.876;7.012;2022-08-05T13:35:00;0.80;;;0.22;;
18580;SDS011;9420;50.876;7.012;2022-08-05T13:37:27;0.20;;;0.20;;
18580;SDS011;9420;50.876;7.012;2022-08-05T13:39:54;1.30;;;0.90;;
18580;SDS011;9420;50.876;7.012;2022-08-05T13:42:23;0.45;;;0.45;;
18580;SDS011;9420;50.876;7.012;2022-08-05T13:44:51;0.43;;;0.40;;
18580;SDS011;9420;50.876;7.012;2022-08-05T13:47:19;0.40;;;0.35;;
18580;SDS011;9420;50.876;7.012;2022-08-05T13:49:48;0.98;;;0.98;;
18580;SDS011;9420;50.876;7.012;2022-08-05T13:52:17;1.80;;;1.40;;
18580;SDS011;9420;50.876;7.012;2022-08-05T13:54:47;0.65;;;0.65;;
18580;SDS011;9420;50.876;7.012;2022-08-05T13:57:14;0.20;;;0.20;;
18580;SDS011;9420;50.876;7.012;2022-08-05T13:59:43;0.30;;;0.30;;
18580;SDS011;9420;50.876;7.012;2022-08-05T14:02:11;1.35;;;1.05;;
18580;SDS011;9420;50.876;7.012;2022-08-05T14:04:40;0.25;;;0.25;;
18580;SDS011;9420;50.876;7.012;2022-08-05T14:07:34;0.88;;;0.35;;
18580;SDS011;9420;50.876;7.012;2022-08-05T14:10:04;0.20;;;0.20;;
18580;SDS011;9420;50.876;7.012;2022-08-05T14:12:34;0.68;;;0.68;;
18580;SDS011;9420;50.876;7.012;2022-08-05T14:15:03;0.30;;;0.30;;
18580;SDS011;9420;50.876;7.012;2022-08-05T14:17:32;0.10;;;0.10;;
18580;SDS011;9420;50.876;7.012;2022-08-05T14:19:59;0.52;;;0.52;;
18580;SDS011;9420;50.876;7.012;2022-08-05T14:22:26;0.43;;;0.43;;
18580;SDS011;9420;50.876;7.012;2022-08-05T14:24:53;0.20;;;0.20;;
18580;SDS011;9420;50.876;7.012;2022-08-05T14:27:20;0.45;;;0.45;;
18580;SDS011;9420;50.876;7.012;2022-08-05T14:29:47;0.65;;;0.65;;
18580;SDS011;9420;50.876;7.012;2022-08-05T14:32:16;0.38;;;0.25;;
18580;SDS011;9420;50.876;7.012;2022-08-05T14:34:44;0.47;;;0.47;;
18580;SDS011;9420;50.876;7.012;2022-08-05T14:37:11;0.20;;;0.20;;
18580;SDS011;9420;50.876;7.012;2022-08-05T14:39:38;1.90;;;1.75;;
18580;SDS011;9420;50.876;7.012;2022-08-05T14:42:06;1.27;;;0.70;;
18580;SDS011;9420;50.876;7.012;2022-08-05T14:44:33;0.10;;;0.10;;
18580;SDS011;9420;50.876;7.012;2022-08-05T14:47:00;0.25;;;0.25;;
18580;SDS011;9420;50.876;7.012;2022-08-05T14:49:28;0.38;;;0.38;;
18580;SDS011;9420;50.876;7.012;2022-08-05T14:51:56;0.43;;;0.43;;
18580;SDS011;9420;50.876;7.012;2022-08-05T14:54:23;0.20;;;0.20;;
18580;SDS011;9420;50.876;7.012;2022-08-05T14:56:50;1.65;;;0.85;;
18580;SDS011;9420;50.876;7.012;2022-08-05T14:59:17;1.27;;;0.30;;
18580;SDS011;9420;50.876;7.012;2022-08-05T15:01:45;7.38;;;1.38;;
18580;SDS011;9420;50.876;7.012;2022-08-05T15:04:13;0.20;;;0.20;;
18580;SDS011;9420;50.876;7.012;2022-08-05T15:06:41;0.25;;;0.25;;
18580;SDS011;9420;50.876;7.012;2022-08-05T15:09:08;0.10;;;0.10;;
18580;SDS011;9420;50.876;7.012;2022-08-05T15:11:36;0.52;;;0.32;;
18580;SDS011;9420;50.876;7.012;2022-08-05T15:14:03;0.10;;;0.10;;
18580;SDS011;9420;50.876;7.012;2022-08-05T15:16:30;0.10;;;0.10;;
18580;SDS011;9420;50.876;7.012;2022-08-05T15:18:57;0.03;;;0.03;;